Time;durP1;ratioP1;P1;durP2;ratioP2;P2;SDS_P1;SDS_P2;PMS_P1;PMS_P2;Temp;Humidity;BMP_temperature;BMP_pressure;BME280_temperature;BME280_humidity;BME280_pressure;Samples;Min_cycle;Max_cycle;Signal;HPM_P1;HPM_P2
2022/10/14 00:02:48;;;;;;;24.27;14.75;;;;;;;15.48;72.45;99309.16;5192203;28;20419;-85
2022/10/14 00:05:40;;;;;;;27.63;15.82;;;;;;;15.70;72.89;99322.88;5170818;28;20081;-87
2022/10/14 00:08:32;;;;;;;30.48;16.45;;;;;;;15.83;72.57;99315.19;5167973;28;20415;-86
2022/10/14 00:11:26;;;;;;;32.00;16.85;;;;;;;15.85;72.26;99305.13;5195350;28;20052;-86
2022/10/14 00:14:19;;;;;;;30.08;16.67;;;;;;;15.85;72.24;99310.47;5197808;28;20058;-84
2022/10/14 00:17:11;;;;;;;30.48;15.75;;;;;;;15.91;72.07;99306.31;5181664;28;20096;-84
2022/10/14 00:20:02;;;;;;;34.25;16.50;;;;;;;15.70;72.77;99288.97;5171851;28;20451;-84
2022/10/14 00:22:53;;;;;;;31.73;16.48;;;;;;;15.51;73.06;99268.75;5196835;28;20100;-85
2022/10/14 00:25:43;;;;;;;32.15;16.80;;;;;;;15.67;73.02;99293.81;5167459;28;20129;-85
2022/10/14 00:28:33;;;;;;;29.33;16.48;;;;;;;15.72;72.46;99294.13;5181134;28;20118;-84
2022/10/14 00:31:24;;;;;;;27.60;15.73;;;;;;;15.57;73.09;99296.63;5189970;28;20049;-85
2022/10/14 00:34:14;;;;;;;32.42;15.48;;;;;;;15.48;72.87;99278.94;5211456;28;20067;-84
2022/10/14 00:37:05;;;;;;;27.85;15.70;;;;;;;15.49;72.75;99294.78;5187062;28;20452;-83
2022/10/14 00:39:55;;;;;;;26.92;14.20;;;;;;;15.50;72.70;99291.13;5186142;28;20176;-83
2022/10/14 00:42:47;;;;;;;28.05;15.68;;;;;;;15.52;72.62;99291.78;5185667;28;20122;-84
2022/10/14 00:45:37;;;;;;;25.38;14.50;;;;;;;15.55;72.60;99295.97;5195592;28;20161;-84
2022/10/14 00:48:27;;;;;;;29.30;14.27;;;;;;;15.57;73.17;99295.81;5163118;28;20060;-83
2022/10/14 00:51:19;;;;;;;25.58;14.15;;;;;;;15.45;72.28;99282.78;5181692;28;20055;-84
2022/10/14 00:54:15;;;;;;;30.60;14.63;;;;;;;15.64;72.60;99302.16;5171344;28;20104;-83
2022/10/14 00:57:06;;;;;;;26.00;14.07;;;;;;;15.65;72.51;99299.28;5183011;28;20108;-84
2022/10/14 01:00:09;;;;;;;27.30;14.88;;;;;;;15.66;72.68;99295.66;5177414;28;20099;-83
2022/10/14 01:03:00;;;;;;;29.42;15.32;;;;;;;15.36;72.43;99259.72;5183806;28;20053;-83
2022/10/14 01:06:00;;;;;;;23.45;14.48;;;;;;;15.53;72.90;99314.03;5197418;28;20257;-84
2022/10/14 01:09:12;;;;;;;24.73;14.40;;;;;;;15.45;73.53;99311.34;5169010;28;20497;-83
2022/10/14 01:12:16;;;;;;;22.10;14.60;;;;;;;15.61;72.68;99310.50;5182728;28;20127;-84
2022/10/14 01:15:23;;;;;;;26.60;14.13;;;;;;;15.43;73.24;99308.84;5185446;28;20161;-83
2022/10/14 01:18:34;;;;;;;22.40;14.50;;;;;;;15.37;72.93;99284.63;5176836;28;20058;-84
2022/10/14 01:21:40;;;;;;;28.92;14.90;;;;;;;15.65;72.89;99306.47;5200496;28;20109;-84
2022/10/14 01:25:04;;;;;;;29.80;15.13;;;;;;;15.61;73.16;99305.16;5200463;28;20427;-84
2022/10/14 01:28:10;;;;;;;28.38;15.15;;;;;;;15.51;72.79;99292.78;5188150;28;20053;-85
2022/10/14 01:31:05;;;;;;;22.75;13.27;;;;;;;15.54;73.13;99296.13;5184629;28;20045;-85
2022/10/14 01:33:58;;;;;;;25.20;14.20;;;;;;;15.54;72.96;99304.16;5198875;28;20058;-85
2022/10/14 01:36:57;;;;;;;24.27;14.53;;;;;;;15.60;73.19;99287.44;5175588;28;20053;-85
2022/10/14 01:39:54;;;;;;;24.08;14.48;;;;;;;15.32;72.76;99269.09;5170206;28;20158;-84
2022/10/14 01:42:46;;;;;;;24.98;14.20;;;;;;;15.41;72.72;99280.59;5194751;28;20056;-84
2022/10/14 01:45:40;;;;;;;29.63;14.15;;;;;;;15.52;72.81;99282.94;5175509;28;20054;-83
2022/10/14 01:48:38;;;;;;;25.40;14.15;;;;;;;15.49;72.80;99281.41;5194958;28;20042;-85
2022/10/14 01:51:51;;;;;;;23.65;13.50;;;;;;;15.45;73.00;99277.41;5218100;28;20064;-84
2022/10/14 01:54:43;;;;;;;31.92;14.93;;;;;;;15.53;72.37;99287.28;5196064;28;20216;-84
2022/10/14 01:57:38;;;;;;;22.73;13.60;;;;;;;15.28;72.75;99257.06;5177502;28;20108;-84
2022/10/14 02:00:28;;;;;;;21.85;13.18;;;;;;;15.27;72.79;99255.41;5185514;28;20050;-85
2022/10/14 02:03:23;;;;;;;23.55;13.13;;;;;;;15.55;72.52;99281.75;5186669;28;20049;-85
2022/10/14 02:06:20;;;;;;;21.27;12.85;;;;;;;15.52;72.60;99281.09;5189750;28;20053;-85
2022/10/14 02:09:42;;;;;;;25.15;13.13;;;;;;;15.33;72.39;99260.09;5204021;28;20161;-89
2022/10/14 02:12:48;;;;;;;24.08;13.27;;;;;;;15.41;72.99;99286.78;5205020;28;20049;-87
2022/10/14 02:16:22;;;;;;;22.13;12.93;;;;;;;15.38;72.75;99280.94;5190459;28;20115;-86
2022/10/14 02:19:28;;;;;;;24.77;12.93;;;;;;;15.45;73.03;99288.13;5106027;28;20047;-88
2022/10/14 02:22:35;;;;;;;22.80;11.80;;;;;;;15.54;71.56;99288.94;5136159;28;20043;-88
2022/10/14 02:25:46;;;;;;;16.15;10.77;;;;;;;15.45;71.41;99266.72;5180443;28;20050;-87
2022/10/14 02:28:39;;;;;;;19.92;9.70;;;;;;;15.48;71.52;99271.75;5170642;28;20416;-85
2022/10/14 02:31:34;;;;;;;24.60;8.85;;;;;;;15.55;71.10;99279.09;5202918;28;20076;-87
2022/10/14 02:34:26;;;;;;;20.23;8.65;;;;;;;15.22;70.26;99229.19;5199057;28;20065;-88
2022/10/14 02:37:18;;;;;;;12.30;7.38;;;;;;;15.28;70.61;99249.06;5202848;28;20079;-87
2022/10/14 02:40:36;;;;;;;19.05;8.02;;;;;;;15.39;70.16;99259.38;5203900;28;20060;-89
2022/10/14 02:43:26;;;;;;;16.70;7.82;;;;;;;15.44;70.96;99257.06;5201501;28;20057;-87
2022/10/14 02:46:20;;;;;;;11.50;7.28;;;;;;;15.33;70.78;99240.53;5191695;28;20069;-86
2022/10/14 02:49:10;;;;;;;17.30;7.80;;;;;;;15.31;71.40;99248.72;5188097;28;20057;-87
2022/10/14 02:52:01;;;;;;;13.38;6.97;;;;;;;15.32;71.55;99245.03;5208578;28;20064;-87
2022/10/14 02:54:51;;;;;;;16.13;7.25;;;;;;;15.26;71.80;99259.91;5193794;28;20101;-89
2022/10/14 02:57:41;;;;;;;12.30;7.10;;;;;;;15.20;71.46;99262.44;5207894;28;20045;-87
2022/10/14 03:00:31;;;;;;;15.02;6.63;;;;;;;15.22;71.92;99239.03;5191056;28;20072;-87
2022/10/14 03:03:24;;;;;;;10.65;6.90;;;;;;;15.23;71.80;99238.03;5189842;28;20048;-88
2022/10/14 03:06:14;;;;;;;12.70;6.25;;;;;;;15.24;72.05;99234.38;5182017;28;20634;-86
2022/10/14 03:09:05;;;;;;;14.45;5.90;;;;;;;15.04;71.23;99193.81;5185260;28;20542;-87
2022/10/14 03:12:00;;;;;;;9.48;6.03;;;;;;;15.24;71.21;99200.47;5201372;28;20501;-85
2022/10/14 03:14:51;;;;;;;12.15;6.70;;;;;;;15.44;71.00;99226.84;5201937;28;20140;-87
2022/10/14 03:17:41;;;;;;;9.43;6.05;;;;;;;15.01;72.01;99172.78;5187987;28;20051;-86
2022/10/14 03:20:32;;;;;;;11.15;6.95;;;;;;;15.16;71.50;99186.28;5187067;28;20480;-88
2022/10/14 03:23:23;;;;;;;13.95;6.90;;;;;;;15.23;71.71;99205.97;5184778;28;20111;-88
2022/10/14 03:26:16;;;;;;;13.10;6.60;;;;;;;14.79;72.07;99140.41;5202601;28;20056;-87
2022/10/14 03:29:09;;;;;;;12.63;6.85;;;;;;;15.08;72.07;99172.94;5201303;28;20542;-88
2022/10/14 03:32:13;;;;;;;17.90;6.93;;;;;;;15.42;71.56;99196.75;5196217;28;20060;-88
2022/10/14 03:35:30;;;;;;;15.07;7.25;;;;;;;15.23;71.56;99193.47;5181335;28;20042;-87
2022/10/14 03:38:21;;;;;;;13.15;7.53;;;;;;;15.08;72.51;99197.81;5176900;28;20061;-88
2022/10/14 03:41:12;;;;;;;10.73;7.22;;;;;;;15.01;71.68;99180.78;5202362;28;20076;-87
2022/10/14 03:44:04;;;;;;;14.45;7.47;;;;;;;14.84;72.36;99160.44;5184927;28;20491;-87
2022/10/14 03:47:03;;;;;;;16.88;7.70;;;;;;;14.53;73.65;99159.25;5187788;28;20056;-87
2022/10/14 03:49:55;;;;;;;14.40;8.05;;;;;;;14.86;73.25;99191.28;5200577;28;20053;-88
2022/10/14 03:52:58;;;;;;;14.20;8.35;;;;;;;15.04;72.96;99178.63;5205197;28;20052;-87
2022/10/14 03:55:55;;;;;;;14.20;8.90;;;;;;;15.27;71.30;99165.41;5159690;28;20065;-86
2022/10/14 03:58:46;;;;;;;13.82;8.23;;;;;;;15.34;71.72;99178.09;5186490;28;20103;-85
2022/10/14 04:01:37;;;;;;;15.98;8.90;;;;;;;15.12;71.87;99171.59;5184764;28;20139;-86
2022/10/14 04:04:48;;;;;;;18.23;9.40;;;;;;;14.73;73.19;99161.59;5180398;28;20061;-87
2022/10/14 04:07:41;;;;;;;18.85;8.40;;;;;;;15.06;71.45;99145.56;5167752;28;20060;-85
2022/10/14 04:10:32;;;;;;;14.77;9.50;;;;;;;15.16;72.10;99159.56;5182541;28;20099;-85
2022/10/14 04:13:23;;;;;;;15.82;9.00;;;;;;;15.02;72.29;99169.09;5180328;28;20053;-86
2022/10/14 04:16:13;;;;;;;15.88;9.30;;;;;;;14.96;73.14;99173.28;5220387;23;20090;-75
2022/10/14 04:19:23;;;;;;;15.68;9.57;;;;;;;14.71;73.65;99161.78;5242320;28;20052;-75
2022/10/14 04:22:14;;;;;;;19.00;9.43;;;;;;;15.08;73.08;99157.75;5226550;28;20522;-75
2022/10/14 04:25:08;;;;;;;20.75;10.23;;;;;;;14.78;72.88;99160.09;5228404;28;20068;-75
2022/10/14 04:27:59;;;;;;;22.20;11.10;;;;;;;15.00;72.12;99149.75;5221063;28;20059;-75
2022/10/14 04:31:01;;;;;;;25.27;11.45;;;;;;;14.97;73.12;99163.44;5212023;28;20194;-76
2022/10/14 04:34:00;;;;;;;24.30;10.63;;;;;;;15.09;72.80;99150.56;5222320;28;20063;-75
2022/10/14 04:36:58;;;;;;;16.95;10.88;;;;;;;14.85;73.39;99154.94;5224734;28;20063;-75
2022/10/14 04:40:09;;;;;;;24.27;10.68;;;;;;;14.68;73.81;99156.75;5224995;28;20059;-76
2022/10/14 04:43:06;;;;;;;20.48;11.10;;;;;;;14.74;73.90;99153.44;5228547;28;20721;-76
2022/10/14 04:46:01;;;;;;;17.45;10.70;;;;;;;14.78;73.26;99151.25;5221952;28;20426;-75
2022/10/14 04:48:52;;;;;;;17.15;9.80;;;;;;;14.89;73.40;99148.25;5218945;28;20424;-76
2022/10/14 04:51:46;;;;;;;31.00;13.95;;;;;;;15.02;72.39;99148.56;5227604;28;20446;-76
2022/10/14 04:54:59;;;;;;;22.27;10.25;;;;;;;14.71;74.00;99144.94;5227623;28;20056;-75
2022/10/14 04:57:57;;;;;;;25.02;11.52;;;;;;;14.74;74.11;99141.94;5222903;28;20557;-74
2022/10/14 05:00:54;;;;;;;24.02;12.25;;;;;;;14.52;74.71;99122.06;5215601;28;20052;-75
2022/10/14 05:04:00;;;;;;;23.85;12.23;;;;;;;14.33;75.33;99126.66;5222420;28;20044;-75
2022/10/14 05:06:54;;;;;;;21.75;12.52;;;;;;;14.41;75.31;99109.03;5210241;28;20055;-75
2022/10/14 05:09:45;;;;;;;21.98;12.73;;;;;;;14.48;74.93;99131.38;5219219;28;20056;-75
2022/10/14 05:12:46;;;;;;;25.67;12.65;;;;;;;14.32;75.99;99108.19;5222459;28;20552;-75
2022/10/14 05:15:37;;;;;;;31.48;13.90;;;;;;;14.33;75.89;99120.50;5230677;28;20056;-74
2022/10/14 05:18:34;;;;;;;21.83;13.00;;;;;;;14.28;75.58;99091.66;5204813;28;20062;-75
2022/10/14 05:21:29;;;;;;;37.78;18.30;;;;;;;14.49;75.15;99111.69;5207550;28;20091;-75
2022/10/14 05:24:24;;;;;;;27.77;17.33;;;;;;;14.37;74.94;99100.53;5230736;28;20041;-76
2022/10/14 05:27:15;;;;;;;81.07;46.38;;;;;;;14.45;74.62;99103.19;5231908;28;20174;-75
2022/10/14 05:30:07;;;;;;;83.30;41.65;;;;;;;14.32;76.05;99092.19;5228504;28;20102;-76
2022/10/14 05:33:03;;;;;;;52.65;27.05;;;;;;;14.25;75.75;99097.34;5218746;28;20410;-75
2022/10/14 05:35:57;;;;;;;27.08;14.18;;;;;;;14.21;76.18;99101.34;5215265;28;20064;-74
2022/10/14 05:38:57;;;;;;;26.05;13.20;;;;;;;14.16;76.01;99078.81;5218801;28;20048;-75
2022/10/14 05:41:51;;;;;;;25.95;14.57;;;;;;;14.26;75.19;99082.16;5218711;28;20072;-73
2022/10/14 05:44:46;;;;;;;25.67;12.38;;;;;;;14.25;75.23;99084.00;5231266;28;20529;-74
2022/10/14 05:47:36;;;;;;;24.25;13.13;;;;;;;14.20;75.61;99088.16;5230905;28;20083;-75
2022/10/14 05:50:35;;;;;;;21.42;12.55;;;;;;;14.21;75.73;99082.66;5223746;28;20080;-74
2022/10/14 05:53:31;;;;;;;28.33;13.98;;;;;;;14.27;74.10;99073.16;5214974;28;20670;-76
2022/10/14 05:56:25;;;;;;;25.55;12.75;;;;;;;14.42;74.78;99094.69;5230633;28;20059;-75
2022/10/14 05:59:16;;;;;;;22.80;14.15;;;;;;;14.71;73.74;99094.22;5230213;28;20392;-75
2022/10/14 06:02:08;;;;;;;24.27;14.50;;;;;;;14.67;73.90;99092.88;5222818;28;20041;-76
2022/10/14 06:04:58;;;;;;;25.85;14.77;;;;;;;14.75;73.36;99091.03;5229411;28;20060;-74
2022/10/14 06:07:51;;;;;;;23.23;14.73;;;;;;;14.61;74.21;99096.22;5244718;28;20645;-75
2022/10/14 06:10:42;;;;;;;27.02;14.82;;;;;;;14.59;74.28;99096.38;5236914;28;20045;-74
2022/10/14 06:13:33;;;;;;;32.15;19.75;;;;;;;14.52;74.52;99090.03;5221053;28;20045;-73
2022/10/14 06:16:24;;;;;;;36.22;20.83;;;;;;;14.61;74.45;99096.22;5230517;28;20159;-73
2022/10/14 06:19:15;;;;;;;21.98;12.10;;;;;;;14.68;74.29;99099.88;5226306;28;20048;-73
2022/10/14 06:22:06;;;;;;;18.02;11.05;;;;;;;14.70;74.37;99095.19;5225319;28;20044;-74
2022/10/14 06:24:56;;;;;;;18.15;10.55;;;;;;;14.66;73.79;99094.72;5242086;28;20106;-73
2022/10/14 06:27:53;;;;;;;23.90;10.13;;;;;;;14.81;73.79;99105.56;5236853;28;20060;-75
2022/10/14 06:30:50;;;;;;;15.98;10.00;;;;;;;14.68;73.71;99114.06;5235912;28;20429;-75
2022/10/14 06:33:42;;;;;;;17.23;9.65;;;;;;;14.87;73.66;99114.72;5204143;28;20087;-75
2022/10/14 06:36:32;;;;;;;20.38;10.27;;;;;;;14.97;73.25;99099.38;5214679;28;20094;-75
2022/10/14 06:39:22;;;;;;;18.05;10.48;;;;;;;14.88;73.96;99101.22;5218847;28;20052;-76
2022/10/14 06:42:12;;;;;;;20.83;10.57;;;;;;;14.92;73.60;99099.84;5221297;28;20056;-75
2022/10/14 06:45:04;;;;;;;24.17;10.68;;;;;;;14.99;73.61;99098.19;5201255;28;20049;-76
2022/10/14 06:47:55;;;;;;;19.90;10.55;;;;;;;14.90;73.86;99101.88;5217663;28;20053;-77
2022/10/14 06:50:45;;;;;;;19.77;10.43;;;;;;;14.97;73.90;99097.53;5224864;28;20045;-75
2022/10/14 06:53:35;;;;;;;23.83;11.10;;;;;;;15.10;73.20;99104.16;5209796;28;20075;-74
2022/10/14 06:56:25;;;;;;;19.33;10.48;;;;;;;14.92;73.81;99096.34;5199932;28;20061;-74
2022/10/14 06:59:16;;;;;;;25.75;11.52;;;;;;;14.94;73.84;99097.03;5213264;28;20105;-75
2022/10/14 07:02:07;;;;;;;23.80;12.65;;;;;;;15.04;73.69;99093.16;5189390;28;20494;-72
2022/10/14 07:04:57;;;;;;;21.55;11.70;;;;;;;14.92;74.44;99094.50;5202070;28;20194;-74
2022/10/14 07:07:47;;;;;;;21.13;11.30;;;;;;;15.03;74.12;99096.84;5205115;28;20192;-73
2022/10/14 07:10:37;;;;;;;20.80;12.00;;;;;;;15.06;74.25;99092.16;5180659;28;20139;-74
2022/10/14 07:13:27;;;;;;;23.20;11.57;;;;;;;15.03;74.15;99096.00;5225051;28;20643;-74
2022/10/14 07:16:18;;;;;;;25.95;11.88;;;;;;;14.86;74.52;99076.50;5211523;28;20147;-72
2022/10/14 07:19:08;;;;;;;25.73;11.57;;;;;;;14.93;74.33;99098.00;5199108;28;20045;-72
2022/10/14 07:22:02;;;;;;;25.67;11.23;;;;;;;14.76;75.09;99090.03;5195490;28;20101;-71
2022/10/14 07:24:52;;;;;;;21.83;11.40;;;;;;;14.89;74.56;99094.84;5210139;28;20056;-73
2022/10/14 07:27:42;;;;;;;23.35;11.73;;;;;;;14.86;74.58;99092.53;5211978;28;20063;-73
2022/10/14 07:30:33;;;;;;;27.55;12.60;;;;;;;14.82;74.59;99083.19;5212327;28;20060;-74
2022/10/14 07:33:23;;;;;;;28.95;12.75;;;;;;;14.95;74.42;99099.53;5204221;28;20123;-74
2022/10/14 07:36:16;;;;;;;23.85;11.40;;;;;;;14.81;74.75;99097.56;5222711;28;20069;-73
2022/10/14 07:39:12;;;;;;;18.55;11.98;;;;;;;15.14;74.09;99116.19;5202716;28;20087;-74
2022/10/14 07:42:02;;;;;;;22.05;11.57;;;;;;;15.48;72.93;99115.94;5209648;28;20064;-74
2022/10/14 07:44:53;;;;;;;23.90;12.10;;;;;;;15.60;71.93;99125.25;5213118;28;20066;-73
2022/10/14 07:47:46;;;;;;;20.45;12.15;;;;;;;15.66;71.78;99118.34;5214086;28;20044;-74
2022/10/14 07:50:37;;;;;;;21.20;11.30;;;;;;;15.49;72.89;99112.25;5218560;28;20400;-74
2022/10/14 07:53:27;;;;;;;26.77;12.05;;;;;;;15.74;72.76;99107.66;5216133;28;20306;-73
2022/10/14 07:56:18;;;;;;;22.83;11.80;;;;;;;15.78;72.26;99098.28;5211852;28;20086;-73
2022/10/14 07:59:08;;;;;;;29.70;12.38;;;;;;;15.81;72.33;99110.47;5208585;28;20064;-74
2022/10/14 08:01:58;;;;;;;20.55;11.07;;;;;;;15.54;71.63;99080.50;5211658;28;20179;-72
2022/10/14 08:04:54;;;;;;;15.90;10.50;;;;;;;15.86;72.04;99108.97;5211077;28;20115;-71
2022/10/14 08:08:02;;;;;;;22.42;11.73;;;;;;;15.87;72.03;99107.13;5203614;28;20341;-72
2022/10/14 08:11:11;;;;;;;22.77;11.68;;;;;;;15.97;72.40;99100.53;5212791;28;20067;-72
2022/10/14 08:14:02;;;;;;;21.75;11.13;;;;;;;16.02;72.03;99101.84;5210749;28;20076;-73
2022/10/14 08:16:52;;;;;;;20.50;10.48;;;;;;;15.62;73.12;99095.66;5215159;28;20087;-73
2022/10/14 08:19:42;;;;;;;20.05;10.82;;;;;;;15.59;73.08;99102.19;5216089;28;20654;-72
2022/10/14 08:22:33;;;;;;;22.85;11.02;;;;;;;15.66;72.14;99063.13;5180767;28;20561;-72
2022/10/14 08:25:23;;;;;;;18.15;10.25;;;;;;;15.58;72.89;99079.13;5214450;28;20558;-73
2022/10/14 08:28:13;;;;;;;19.20;10.38;;;;;;;15.97;71.93;99081.81;5216637;28;20201;-75
2022/10/14 08:31:03;;;;;;;19.05;10.68;;;;;;;16.15;70.97;99057.44;5200229;28;20051;-71
2022/10/14 08:33:54;;;;;;;27.13;12.15;;;;;;;16.18;71.03;99081.16;5210865;28;20131;-73
2022/10/14 08:36:44;;;;;;;19.08;10.80;;;;;;;15.96;71.72;99082.00;5194392;28;20049;-71
2022/10/14 08:39:35;;;;;;;18.25;9.50;;;;;;;16.00;71.32;99055.75;5180693;28;20415;-73
2022/10/14 08:42:47;;;;;;;21.30;9.93;;;;;;;15.97;71.63;99078.31;5214422;28;20783;-73
2022/10/14 08:45:44;;;;;;;17.40;9.48;;;;;;;16.12;71.46;99075.69;5205947;28;20080;-73
2022/10/14 08:48:35;;;;;;;19.95;9.10;;;;;;;16.12;71.11;99067.66;5215935;28;20064;-75
2022/10/14 08:51:29;;;;;;;18.50;9.48;;;;;;;16.31;70.89;99069.88;5217984;28;20067;-75
2022/10/14 08:54:42;;;;;;;17.20;10.05;;;;;;;16.47;70.06;99068.94;5228712;28;20525;-75
2022/10/14 08:57:41;;;;;;;13.85;8.73;;;;;;;16.34;70.30;99074.06;5234387;28;20068;-74
2022/10/14 09:00:33;;;;;;;16.80;8.65;;;;;;;16.42;69.16;99073.97;5225081;28;20071;-76
2022/10/14 09:03:31;;;;;;;19.73;9.10;;;;;;;16.15;70.81;99075.34;5226011;28;20446;-76
2022/10/14 09:06:28;;;;;;;14.77;8.27;;;;;;;16.45;70.03;99058.38;5223414;28;20054;-75
2022/10/14 09:09:24;;;;;;;16.05;8.40;;;;;;;16.67;69.06;99066.59;5201422;28;20060;-76
2022/10/14 09:12:18;;;;;;;16.42;8.75;;;;;;;16.57;69.95;99072.19;5209354;28;20052;-75
2022/10/14 09:15:15;;;;;;;14.20;7.85;;;;;;;16.72;70.17;99064.22;5212861;28;20094;-74
2022/10/14 09:18:22;;;;;;;15.23;8.07;;;;;;;16.55;68.96;99065.34;5199313;28;20106;-73
2022/10/14 09:21:28;;;;;;;16.70;9.38;;;;;;;16.48;69.62;99056.38;5191990;28;20099;-75
2022/10/14 09:24:39;;;;;;;16.60;8.18;;;;;;;16.67;69.57;99063.91;5210902;28;20415;-74
2022/10/14 09:27:30;;;;;;;19.25;8.90;;;;;;;16.64;70.29;99058.91;5211416;28;20068;-76
2022/10/14 09:30:20;;;;;;;17.45;8.93;;;;;;;16.89;69.83;99067.59;5198468;28;20209;-77
2022/10/14 09:33:17;;;;;;;15.32;8.93;;;;;;;16.98;69.23;99066.47;5214621;28;20218;-74
2022/10/14 09:36:17;;;;;;;14.20;7.80;;;;;;;17.11;69.22;99065.84;5214351;28;20143;-73
2022/10/14 09:39:10;;;;;;;22.33;8.13;;;;;;;17.13;68.83;99047.75;5201247;28;20060;-73
2022/10/14 09:42:01;;;;;;;18.85;8.23;;;;;;;17.05;68.77;99040.63;5213740;28;20064;-74
2022/10/14 09:45:21;;;;;;;9.52;6.95;;;;;;;17.42;67.64;99051.41;5220194;28;20080;-72
2022/10/14 09:48:38;;;;;;;13.07;7.28;;;;;;;17.56;67.03;99038.00;5221074;28;20814;-72
2022/10/14 09:51:32;;;;;;;13.60;8.60;;;;;;;17.74;67.46;99050.16;5212721;28;20061;-73
2022/10/14 09:54:26;;;;;;;15.52;8.07;;;;;;;17.77;67.59;99033.72;5225877;28;20119;-72
2022/10/14 09:57:18;;;;;;;10.20;6.80;;;;;;;18.05;66.01;99044.56;5224019;28;20513;-73
2022/10/14 10:00:24;;;;;;;15.13;6.85;;;;;;;18.03;67.32;99038.56;5222891;28;20059;-73
2022/10/14 10:03:34;;;;;;;16.48;7.10;;;;;;;18.29;64.39;99049.56;5222015;28;20041;-71
2022/10/14 10:06:25;;;;;;;16.15;7.10;;;;;;;18.33;64.98;99046.47;5206413;28;20518;-74
2022/10/14 10:09:18;;;;;;;13.85;6.65;;;;;;;18.40;64.10;99031.25;5221651;28;20048;-74
2022/10/14 10:12:29;;;;;;;11.35;6.57;;;;;;;18.25;64.19;99040.22;5222532;28;20055;-75
2022/10/14 10:15:23;;;;;;;11.90;6.60;;;;;;;18.03;66.26;99038.56;5218586;28;20076;-74
2022/10/14 10:18:18;;;;;;;16.10;7.18;;;;;;;17.79;67.46;99021.81;5208321;28;20075;-74
2022/10/14 10:21:23;;;;;;;13.25;6.78;;;;;;;17.93;66.00;99019.25;5211397;28;20053;-75
2022/10/14 10:24:20;;;;;;;17.48;7.60;;;;;;;17.94;66.13;99010.19;5208834;28;20174;-74
2022/10/14 10:27:26;;;;;;;11.77;7.00;;;;;;;18.16;64.77;99013.72;5234654;28;20060;-75
2022/10/14 10:30:16;;;;;;;;;;;;;;;17.74;66.10;99002.72;5205793;28;20514;-78
2022/10/14 10:33:16;;;;;;;14.98;7.50;;;;;;;17.67;66.65;98999.13;5241292;28;20042;-75
2022/10/14 10:36:09;;;;;;;11.57;7.68;;;;;;;17.51;67.56;99002.03;5241433;28;20060;-74
2022/10/14 10:39:09;;;;;;;13.35;7.43;;;;;;;17.80;67.98;98990.44;5231433;28;20056;-74
2022/10/14 10:42:13;;;;;;;14.73;7.28;;;;;;;17.89;66.75;98985.78;5221991;28;20049;-73
2022/10/14 10:45:25;;;;;;;21.65;11.43;;;;;;;18.00;67.93;98985.28;5202705;28;20602;-73
2022/10/14 10:48:25;;;;;;;15.50;7.70;;;;;;;18.00;67.37;98977.22;5215851;28;20048;-74
2022/10/14 10:51:44;;;;;;;12.48;7.22;;;;;;;18.14;66.48;98964.75;5221904;28;20538;-73
2022/10/14 10:54:50;;;;;;;14.07;7.55;;;;;;;18.22;67.37;98970.00;5225446;28;20055;-74
2022/10/14 10:58:18;;;;;;;15.02;7.75;;;;;;;18.51;65.65;98960.94;5229386;28;20083;-75
2022/10/14 11:01:50;;;;;;;10.02;6.43;;;;;;;18.53;66.81;98956.19;5215100;28;20052;-72
2022/10/14 11:04:45;;;;;;;11.30;6.57;;;;;;;18.73;64.16;98959.03;5201767;28;20045;-72
2022/10/14 11:14:45;;;;;;;12.95;6.40;;;;;;;18.88;65.04;98940.97;5167056;28;20094;-75
2022/10/14 11:17:59;;;;;;;13.15;6.40;;;;;;;18.89;63.49;98945.28;5206510;28;20113;-76
2022/10/14 11:21:02;;;;;;;12.27;6.25;;;;;;;18.76;64.37;98938.00;5192005;28;20065;-75
2022/10/14 11:23:58;;;;;;;15.57;6.80;;;;;;;18.78;65.08;98935.94;5211879;28;20083;-76
2022/10/14 11:27:03;;;;;;;9.07;5.88;;;;;;;18.62;64.61;98936.22;5191137;28;20091;-76
2022/10/14 11:30:12;;;;;;;12.63;6.07;;;;;;;18.72;65.52;98933.22;5194763;28;20430;-74
2022/10/14 11:33:32;;;;;;;11.30;5.78;;;;;;;18.59;65.67;98917.00;5213656;28;20061;-76
2022/10/14 11:36:48;;;;;;;12.23;5.95;;;;;;;18.67;65.10;98927.56;5209065;28;20715;-76
2022/10/14 11:39:49;;;;;;;8.90;5.18;;;;;;;18.80;65.03;98933.03;5209869;28;20727;-76
2022/10/14 11:43:12;;;;;;;9.57;5.55;;;;;;;18.64;65.92;98931.50;5203136;28;20056;-75
2022/10/14 11:46:11;;;;;;;10.13;5.78;;;;;;;18.73;67.10;98942.94;5206599;28;20045;-75
2022/10/14 11:49:16;;;;;;;11.40;5.53;;;;;;;18.69;66.99;98930.91;5207384;28;20064;-75
2022/10/14 11:52:13;;;;;;;11.20;4.68;;;;;;;18.63;68.39;98927.13;5207477;22;20041;-71
2022/10/14 11:55:19;;;;;;;7.55;4.60;;;;;;;18.64;67.19;98931.50;5188342;28;20325;-71
2022/10/14 11:58:14;;;;;;;7.63;4.15;;;;;;;18.67;67.46;98924.88;5201148;28;20068;-72
2022/10/14 12:01:07;;;;;;;8.90;3.97;;;;;;;18.69;67.00;98917.47;5195173;28;20064;-72
2022/10/14 12:04:12;;;;;;;7.75;3.92;;;;;;;18.63;66.85;98911.03;5183872;28;20065;-72
2022/10/14 12:07:09;;;;;;;9.15;4.43;;;;;;;18.44;68.32;98900.97;5172561;28;20073;-72
2022/10/14 12:10:04;;;;;;;6.85;4.40;;;;;;;18.55;68.96;98895.91;5173318;28;20061;-72
2022/10/14 12:12:55;;;;;;;8.13;3.97;;;;;;;18.67;69.02;98888.09;5179456;28;20552;-72
2022/10/14 12:15:52;;;;;;;7.28;4.28;;;;;;;18.73;68.86;98886.53;5161855;28;20411;-72
2022/10/14 12:18:45;;;;;;;8.27;4.13;;;;;;;18.72;67.81;98877.63;5170599;28;20057;-70
2022/10/14 12:21:47;;;;;;;5.68;4.32;;;;;;;18.76;67.90;98878.91;5166998;28;20131;-70
2022/10/14 12:24:49;;;;;;;9.52;3.80;;;;;;;18.79;67.08;98883.03;5162564;28;20740;-75
2022/10/14 12:27:40;;;;;;;8.60;3.95;;;;;;;18.84;67.41;98877.91;5169706;28;20255;-73
2022/10/14 12:30:37;;;;;;;9.68;4.32;;;;;;;19.04;67.49;98878.00;5168966;28;20057;-72
2022/10/14 12:33:27;;;;;;;17.30;7.82;;;;;;;18.93;66.91;98855.19;5172334;28;20088;-74
2022/10/14 12:36:30;;;;;;;8.43;4.35;;;;;;;19.07;67.56;98853.38;5170941;28;20168;-73
2022/10/14 12:39:28;;;;;;;9.02;5.47;;;;;;;19.12;67.98;98848.25;5176617;28;20077;-73
2022/10/14 12:42:20;;;;;;;11.23;5.22;;;;;;;19.22;67.43;98866.69;5172962;28;20057;-73
2022/10/14 12:45:18;;;;;;;7.60;5.35;;;;;;;19.25;68.42;98859.03;5184264;28;20053;-73
2022/10/14 12:48:20;;;;;;;7.72;4.65;;;;;;;19.45;66.19;98852.88;5184945;28;20076;-73
2022/10/14 12:51:14;;;;;;;10.13;5.70;;;;;;;19.50;66.94;98845.00;5165217;28;20054;-73
2022/10/14 12:54:14;;;;;;;8.57;5.50;;;;;;;19.32;66.74;98844.78;5184058;28;20041;-73
2022/10/14 12:57:27;;;;;;;10.50;6.63;;;;;;;19.25;66.09;98844.78;5189448;28;20061;-73
2022/10/14 13:00:20;;;;;;;15.52;6.35;;;;;;;19.36;66.66;98844.16;5165663;28;20065;-73
2022/10/14 13:03:22;;;;;;;13.45;6.85;;;;;;;19.30;66.74;98836.09;5195728;28;20807;-73
2022/10/14 13:06:30;;;;;;;12.80;5.97;;;;;;;19.10;67.58;98836.84;5182511;28;20156;-73
2022/10/14 13:09:34;;;;;;;16.17;7.45;;;;;;;19.14;67.72;98831.91;5174002;28;20416;-73
2022/10/14 13:12:24;;;;;;;8.77;5.95;;;;;;;19.18;67.36;98823.25;5197721;28;20176;-74
2022/10/14 13:15:47;;;;;;;11.18;6.68;;;;;;;19.35;66.78;98825.56;5200400;28;20399;-71
2022/10/14 13:18:42;;;;;;;12.43;6.18;;;;;;;19.35;67.58;98833.63;5187702;28;20522;-74
2022/10/14 13:21:33;;;;;;;11.45;6.25;;;;;;;19.55;68.01;98834.47;5185124;28;20052;-72
2022/10/14 13:24:29;;;;;;;10.35;5.63;;;;;;;19.62;66.29;98819.16;5202669;28;20060;-71
2022/10/14 13:27:39;;;;;;;11.80;6.00;;;;;;;19.71;66.77;98828.72;5201920;28;20092;-72
2022/10/14 13:30:41;;;;;;;11.57;5.82;;;;;;;19.65;66.43;98824.16;5177388;28;20065;-71
2022/10/14 13:33:49;;;;;;;10.98;5.57;;;;;;;19.70;66.84;98819.00;5196366;28;20045;-74
2022/10/14 13:36:56;;;;;;;7.13;5.00;;;;;;;19.59;66.18;98814.19;5202093;28;20073;-71
2022/10/14 13:39:47;;;;;;;10.70;4.20;;;;;;;19.51;66.13;98802.84;5184917;28;20072;-71
2022/10/14 13:42:38;;;;;;;8.10;3.50;;;;;;;19.63;65.37;98820.84;5196088;28;20421;-71
2022/10/14 13:45:45;;;;;;;9.75;3.90;;;;;;;19.61;65.70;98817.53;5193616;28;20099;-71
2022/10/14 13:48:42;;;;;;;4.88;2.45;;;;;;;19.95;62.30;98808.41;5202582;28;20056;-71